KCNY

Details ICAO KCNY (CNY)
Name CANYONLANDS FLD
Region United States
Timezone America/Denver (UTC-6.0)
Plans Departing 19
Arriving 30
Stats Elevation 4,555 ft / 1,388 m (AMSL)
Location 38.754957° -109.754845°
Runways 1
Magnetic Variation 10.251° E
Sunrise 2018-05-20 12:04:10 UTC / 2018-05-20 06:04:10 Local
Sunset 2018-05-21 02:29:49 UTC / 2018-05-20 20:29:49 Local
Advertisement - Login to hide

Runways

ID Width Length Bearing (true) Bearing (mag) Surface Threshold Offset Overrun Length
03 75 ft / 23 m 7,099 ft / 2,164 m 39.77° 29.52° Asphalt 0 ft / 0 m 0 ft / 0 m
21 75 ft / 23 m 7,099 ft / 2,164 m 219.78° 209.53° Asphalt 0 ft / 0 m 0 ft / 0 m

Map

Weather


0- 5 10 15 20 25 30 35+ Temperature / ° C

Clouds and Precipitation
Forecast for 2018-05-21 00:00 UTC. Updated 3 hours ago

Ground ~20,000 ft ~40,000 ft Winds

METAR

KCNY 210153Z AUTO 36012KT 10SM CLR 21/02 A2989 RMK AO2 SLP074 T02110017

TAF

TAF KCNY 202329Z 2100/2124 09025G35KT P6SM VCTS SCT070CB BKN140 TEMPO 2100/2102 VRB10G20KT -TSRA BKN070CB FM210200 17010KT P6SM FEW110 SCT200 FM210400 14009KT P6SM FEW100 SCT250 FM210800 07005KT P6SM FEW250 FM212000 18011KT P6SM FEW150 SCT250

Frequencies

Recorded 118.52 MHz ASOS
Unicom 122.80 MHz CTAF/UNICOM
Warning: Do not use this data for real-world aviation or navigation. No guarantee of current accuracy is given.